sensor_id;sensor_type;location;lat;lon;timestamp;temperature;humidity
13346;DHT22;6742;48.036;15.780;2024-01-06T00:01:10;4.00;99.90
13346;DHT22;6742;48.036;15.780;2024-01-06T00:03:37;4.00;99.90
13346;DHT22;6742;48.036;15.780;2024-01-06T00:06:05;4.00;99.90
13346;DHT22;6742;48.036;15.780;2024-01-06T00:08:32;4.10;99.90
13346;DHT22;6742;48.036;15.780;2024-01-06T00:10:59;4.10;99.90
13346;DHT22;6742;48.036;15.780;2024-01-06T00:13:28;4.10;99.90
13346;DHT22;6742;48.036;15.780;2024-01-06T00:15:55;4.10;99.90
13346;DHT22;6742;48.036;15.780;2024-01-06T00:18:23;4.10;99.90
13346;DHT22;6742;48.036;15.780;2024-01-06T00:20:50;4.10;99.90
13346;DHT22;6742;48.036;15.780;2024-01-06T00:23:17;4.20;99.90
13346;DHT22;6742;48.036;15.780;2024-01-06T00:25:44;4.20;99.90
13346;DHT22;6742;48.036;15.780;2024-01-06T00:28:11;4.20;99.90
13346;DHT22;6742;48.036;15.780;2024-01-06T00:30:38;4.10;99.90
13346;DHT22;6742;48.036;15.780;2024-01-06T00:33:05;4.10;99.90
13346;DHT22;6742;48.036;15.780;2024-01-06T00:35:33;4.10;99.90
13346;DHT22;6742;48.036;15.780;2024-01-06T00:38:00;4.10;99.90
13346;DHT22;6742;48.036;15.780;2024-01-06T00:40:28;4.10;99.90
13346;DHT22;6742;48.036;15.780;2024-01-06T00:42:54;4.20;99.90
13346;DHT22;6742;48.036;15.780;2024-01-06T00:45:21;4.20;99.90
13346;DHT22;6742;48.036;15.780;2024-01-06T00:47:49;4.20;99.90
13346;DHT22;6742;48.036;15.780;2024-01-06T00:50:16;4.30;99.90
13346;DHT22;6742;48.036;15.780;2024-01-06T00:52:46;4.30;99.90
13346;DHT22;6742;48.036;15.780;2024-01-06T00:55:13;4.30;99.90
13346;DHT22;6742;48.036;15.780;2024-01-06T00:57:40;4.30;99.90
13346;DHT22;6742;48.036;15.780;2024-01-06T01:00:07;4.30;99.90
13346;DHT22;6742;48.036;15.780;2024-01-06T01:02:34;4.40;99.90
13346;DHT22;6742;48.036;15.780;2024-01-06T01:05:01;4.40;99.90
13346;DHT22;6742;48.036;15.780;2024-01-06T01:07:28;4.40;99.90
13346;DHT22;6742;48.036;15.780;2024-01-06T01:09:57;4.40;99.90
13346;DHT22;6742;48.036;15.780;2024-01-06T01:12:24;4.40;99.90
13346;DHT22;6742;48.036;15.780;2024-01-06T01:14:52;4.40;99.90
13346;DHT22;6742;48.036;15.780;2024-01-06T01:17:19;4.40;99.90
13346;DHT22;6742;48.036;15.780;2024-01-06T01:19:46;4.40;99.90
13346;DHT22;6742;48.036;15.780;2024-01-06T01:22:13;4.30;99.90
13346;DHT22;6742;48.036;15.780;2024-01-06T01:24:40;4.30;99.90
13346;DHT22;6742;48.036;15.780;2024-01-06T01:27:09;4.30;99.90
13346;DHT22;6742;48.036;15.780;2024-01-06T01:29:36;4.30;99.90
13346;DHT22;6742;48.036;15.780;2024-01-06T01:32:03;4.30;99.90
13346;DHT22;6742;48.036;15.780;2024-01-06T01:34:30;4.30;99.90
13346;DHT22;6742;48.036;15.780;2024-01-06T01:36:57;4.30;99.90
13346;DHT22;6742;48.036;15.780;2024-01-06T01:39:24;4.30;99.90
13346;DHT22;6742;48.036;15.780;2024-01-06T01:41:51;4.30;99.90
13346;DHT22;6742;48.036;15.780;2024-01-06T01:44:22;4.30;99.90
13346;DHT22;6742;48.036;15.780;2024-01-06T01:46:49;4.30;99.90
13346;DHT22;6742;48.036;15.780;2024-01-06T01:49:16;4.30;99.90
13346;DHT22;6742;48.036;15.780;2024-01-06T01:51:43;4.30;99.90
13346;DHT22;6742;48.036;15.780;2024-01-06T01:54:10;4.30;99.90
13346;DHT22;6742;48.036;15.780;2024-01-06T01:56:38;4.20;99.90
13346;DHT22;6742;48.036;15.780;2024-01-06T01:59:09;4.30;99.90
13346;DHT22;6742;48.036;15.780;2024-01-06T02:01:39;4.30;99.90
13346;DHT22;6742;48.036;15.780;2024-01-06T02:04:06;4.30;99.90
13346;DHT22;6742;48.036;15.780;2024-01-06T02:06:34;4.20;99.90
13346;DHT22;6742;48.036;15.780;2024-01-06T02:09:01;4.20;99.90
13346;DHT22;6742;48.036;15.780;2024-01-06T02:11:28;4.20;99.90
13346;DHT22;6742;48.036;15.780;2024-01-06T02:13:55;4.20;99.90
13346;DHT22;6742;48.036;15.780;2024-01-06T02:16:22;4.30;99.90
13346;DHT22;6742;48.036;15.780;2024-01-06T02:18:50;4.30;99.90
13346;DHT22;6742;48.036;15.780;2024-01-06T02:21:17;4.30;99.90
13346;DHT22;6742;48.036;15.780;2024-01-06T02:23:48;4.20;99.90
13346;DHT22;6742;48.036;15.780;2024-01-06T02:26:16;4.20;99.90
13346;DHT22;6742;48.036;15.780;2024-01-06T02:28:43;4.20;99.90
13346;DHT22;6742;48.036;15.780;2024-01-06T02:31:13;4.20;99.90
13346;DHT22;6742;48.036;15.780;2024-01-06T02:33:40;4.20;99.90
13346;DHT22;6742;48.036;15.780;2024-01-06T02:36:07;4.20;99.90
13346;DHT22;6742;48.036;15.780;2024-01-06T02:38:34;4.20;99.90
13346;DHT22;6742;48.036;15.780;2024-01-06T02:41:03;4.30;99.90
13346;DHT22;6742;48.036;15.780;2024-01-06T02:43:29;4.30;99.90
13346;DHT22;6742;48.036;15.780;2024-01-06T02:45:56;4.30;99.90
13346;DHT22;6742;48.036;15.780;2024-01-06T02:48:23;4.20;99.90
13346;DHT22;6742;48.036;15.780;2024-01-06T02:50:50;4.30;99.90
13346;DHT22;6742;48.036;15.780;2024-01-06T02:53:17;4.30;99.90
13346;DHT22;6742;48.036;15.780;2024-01-06T02:55:44;4.30;99.90
13346;DHT22;6742;48.036;15.780;2024-01-06T02:58:12;4.30;99.90
13346;DHT22;6742;48.036;15.780;2024-01-06T03:00:39;4.30;99.90
13346;DHT22;6742;48.036;15.780;2024-01-06T03:03:06;4.30;99.90
13346;DHT22;6742;48.036;15.780;2024-01-06T03:05:33;4.30;99.90
13346;DHT22;6742;48.036;15.780;2024-01-06T03:08:00;4.30;99.90
13346;DHT22;6742;48.036;15.780;2024-01-06T03:10:27;4.30;99.90
13346;DHT22;6742;48.036;15.780;2024-01-06T03:12:54;4.30;99.90
13346;DHT22;6742;48.036;15.780;2024-01-06T03:15:23;4.30;99.90
13346;DHT22;6742;48.036;15.780;2024-01-06T03:17:49;4.30;99.90
13346;DHT22;6742;48.036;15.780;2024-01-06T03:20:16;4.40;99.90
13346;DHT22;6742;48.036;15.780;2024-01-06T03:22:43;4.40;99.90
13346;DHT22;6742;48.036;15.780;2024-01-06T03:25:13;4.40;99.90
13346;DHT22;6742;48.036;15.780;2024-01-06T03:27:40;4.30;99.90
13346;DHT22;6742;48.036;15.780;2024-01-06T03:30:08;4.40;99.90
13346;DHT22;6742;48.036;15.780;2024-01-06T03:32:36;4.40;99.90
13346;DHT22;6742;48.036;15.780;2024-01-06T03:35:04;4.40;99.90
13346;DHT22;6742;48.036;15.780;2024-01-06T03:37:33;4.40;99.90
13346;DHT22;6742;48.036;15.780;2024-01-06T03:40:00;4.40;99.90
13346;DHT22;6742;48.036;15.780;2024-01-06T03:42:27;4.50;99.90
13346;DHT22;6742;48.036;15.780;2024-01-06T03:44:54;4.50;99.90
13346;DHT22;6742;48.036;15.780;2024-01-06T03:47:21;4.50;99.90
13346;DHT22;6742;48.036;15.780;2024-01-06T03:49:49;4.40;99.90
13346;DHT22;6742;48.036;15.780;2024-01-06T03:52:16;4.40;99.90
13346;DHT22;6742;48.036;15.780;2024-01-06T03:54:43;4.40;99.90
13346;DHT22;6742;48.036;15.780;2024-01-06T03:57:10;4.40;99.90
13346;DHT22;6742;48.036;15.780;2024-01-06T03:59:37;4.40;99.90
13346;DHT22;6742;48.036;15.780;2024-01-06T04:02:04;4.40;99.90
13346;DHT22;6742;48.036;15.780;2024-01-06T04:04:30;4.40;99.90
13346;DHT22;6742;48.036;15.780;2024-01-06T04:06:59;4.40;99.90
13346;DHT22;6742;48.036;15.780;2024-01-06T04:09:27;4.40;99.90
13346;DHT22;6742;48.036;15.780;2024-01-06T04:11:53;4.50;99.90
13346;DHT22;6742;48.036;15.780;2024-01-06T04:14:21;4.50;99.90
13346;DHT22;6742;48.036;15.780;2024-01-06T04:16:48;4.40;99.90
13346;DHT22;6742;48.036;15.780;2024-01-06T04:19:14;4.50;99.90
13346;DHT22;6742;48.036;15.780;2024-01-06T04:21:41;4.50;99.90
13346;DHT22;6742;48.036;15.780;2024-01-06T04:24:10;4.50;99.90
13346;DHT22;6742;48.036;15.780;2024-01-06T04:26:37;4.50;99.90
13346;DHT22;6742;48.036;15.780;2024-01-06T04:29:03;4.60;99.90
13346;DHT22;6742;48.036;15.780;2024-01-06T04:31:30;4.60;99.90
13346;DHT22;6742;48.036;15.780;2024-01-06T04:33:57;4.60;99.90
13346;DHT22;6742;48.036;15.780;2024-01-06T04:36:24;4.70;99.90
13346;DHT22;6742;48.036;15.780;2024-01-06T04:38:51;4.70;99.90
13346;DHT22;6742;48.036;15.780;2024-01-06T04:41:19;4.70;99.90
13346;DHT22;6742;48.036;15.780;2024-01-06T04:43:47;4.60;99.90
13346;DHT22;6742;48.036;15.780;2024-01-06T04:46:14;4.60;99.90
13346;DHT22;6742;48.036;15.780;2024-01-06T04:48:41;4.60;99.90
13346;DHT22;6742;48.036;15.780;2024-01-06T04:51:09;4.60;99.90
13346;DHT22;6742;48.036;15.780;2024-01-06T04:53:36;4.60;99.90
13346;DHT22;6742;48.036;15.780;2024-01-06T04:56:04;4.60;99.90
13346;DHT22;6742;48.036;15.780;2024-01-06T04:58:32;4.50;99.90
13346;DHT22;6742;48.036;15.780;2024-01-06T05:01:00;4.50;99.90
13346;DHT22;6742;48.036;15.780;2024-01-06T05:03:27;4.50;99.90
13346;DHT22;6742;48.036;15.780;2024-01-06T05:05:54;4.60;99.90
13346;DHT22;6742;48.036;15.780;2024-01-06T05:08:21;4.60;99.90
13346;DHT22;6742;48.036;15.780;2024-01-06T05:10:52;4.60;99.90
13346;DHT22;6742;48.036;15.780;2024-01-06T05:13:19;4.60;99.90
13346;DHT22;6742;48.036;15.780;2024-01-06T05:15:48;4.60;99.90
13346;DHT22;6742;48.036;15.780;2024-01-06T05:18:15;4.60;99.90
13346;DHT22;6742;48.036;15.780;2024-01-06T05:20:42;4.60;99.90
13346;DHT22;6742;48.036;15.780;2024-01-06T05:23:09;4.60;99.90
13346;DHT22;6742;48.036;15.780;2024-01-06T05:25:36;4.60;99.90
13346;DHT22;6742;48.036;15.780;2024-01-06T05:28:03;4.60;99.90
13346;DHT22;6742;48.036;15.780;2024-01-06T05:30:30;4.60;99.90
13346;DHT22;6742;48.036;15.780;2024-01-06T05:32:59;4.60;99.90
13346;DHT22;6742;48.036;15.780;2024-01-06T05:35:26;4.60;99.90
13346;DHT22;6742;48.036;15.780;2024-01-06T05:37:53;4.60;99.90
13346;DHT22;6742;48.036;15.780;2024-01-06T05:40:20;4.50;99.90
13346;DHT22;6742;48.036;15.780;2024-01-06T05:42:47;4.50;99.90
13346;DHT22;6742;48.036;15.780;2024-01-06T05:45:14;4.60;99.90
13346;DHT22;6742;48.036;15.780;2024-01-06T05:47:41;4.60;99.90
13346;DHT22;6742;48.036;15.780;2024-01-06T05:50:10;4.60;99.90
13346;DHT22;6742;48.036;15.780;2024-01-06T05:52:37;4.60;99.90
13346;DHT22;6742;48.036;15.780;2024-01-06T05:55:04;4.60;99.90
13346;DHT22;6742;48.036;15.780;2024-01-06T05:57:31;4.70;99.90
13346;DHT22;6742;48.036;15.780;2024-01-06T05:59:59;4.70;99.90
13346;DHT22;6742;48.036;15.780;2024-01-06T06:02:26;4.70;99.90
13346;DHT22;6742;48.036;15.780;2024-01-06T06:04:53;4.60;99.90
13346;DHT22;6742;48.036;15.780;2024-01-06T06:07:21;4.70;99.90
13346;DHT22;6742;48.036;15.780;2024-01-06T06:09:48;4.70;99.90
13346;DHT22;6742;48.036;15.780;2024-01-06T06:12:15;4.60;99.90
13346;DHT22;6742;48.036;15.780;2024-01-06T06:14:42;4.60;99.90
13346;DHT22;6742;48.036;15.780;2024-01-06T06:17:09;4.60;99.90
13346;DHT22;6742;48.036;15.780;2024-01-06T06:19:36;4.60;99.90
13346;DHT22;6742;48.036;15.780;2024-01-06T06:22:04;4.50;99.90
13346;DHT22;6742;48.036;15.780;2024-01-06T06:24:32;4.60;99.90
13346;DHT22;6742;48.036;15.780;2024-01-06T06:26:59;4.60;99.90
13346;DHT22;6742;48.036;15.780;2024-01-06T06:29:26;4.60;99.90
13346;DHT22;6742;48.036;15.780;2024-01-06T06:31:54;4.60;99.90
13346;DHT22;6742;48.036;15.780;2024-01-06T06:34:21;4.60;99.90
13346;DHT22;6742;48.036;15.780;2024-01-06T06:36:48;4.60;99.90
13346;DHT22;6742;48.036;15.780;2024-01-06T06:39:15;4.60;99.90
13346;DHT22;6742;48.036;15.780;2024-01-06T06:41:45;4.60;99.90
13346;DHT22;6742;48.036;15.780;2024-01-06T06:44:12;4.60;99.90
13346;DHT22;6742;48.036;15.780;2024-01-06T06:46:39;4.60;99.90
13346;DHT22;6742;48.036;15.780;2024-01-06T06:49:06;4.60;99.90
13346;DHT22;6742;48.036;15.780;2024-01-06T06:51:33;4.50;99.90
13346;DHT22;6742;48.036;15.780;2024-01-06T06:53:59;4.50;99.90
13346;DHT22;6742;48.036;15.780;2024-01-06T06:56:26;4.50;99.90
13346;DHT22;6742;48.036;15.780;2024-01-06T06:58:55;4.40;99.90
13346;DHT22;6742;48.036;15.780;2024-01-06T07:01:22;4.40;99.90
13346;DHT22;6742;48.036;15.780;2024-01-06T07:03:49;4.40;99.90
13346;DHT22;6742;48.036;15.780;2024-01-06T07:06:15;4.30;99.90
13346;DHT22;6742;48.036;15.780;2024-01-06T07:08:42;4.40;99.90
13346;DHT22;6742;48.036;15.780;2024-01-06T07:11:09;4.40;99.90
13346;DHT22;6742;48.036;15.780;2024-01-06T07:13:37;4.40;99.90
13346;DHT22;6742;48.036;15.780;2024-01-06T07:16:06;4.40;99.90
13346;DHT22;6742;48.036;15.780;2024-01-06T07:18:33;4.30;99.90
13346;DHT22;6742;48.036;15.780;2024-01-06T07:21:00;4.30;99.90
13346;DHT22;6742;48.036;15.780;2024-01-06T07:23:27;4.30;99.90
13346;DHT22;6742;48.036;15.780;2024-01-06T07:25:55;4.30;99.90
13346;DHT22;6742;48.036;15.780;2024-01-06T07:28:22;4.40;99.90
13346;DHT22;6742;48.036;15.780;2024-01-06T07:30:49;4.30;99.90
13346;DHT22;6742;48.036;15.780;2024-01-06T07:33:18;4.40;99.90
13346;DHT22;6742;48.036;15.780;2024-01-06T07:35:45;4.40;99.90
13346;DHT22;6742;48.036;15.780;2024-01-06T07:38:12;4.40;99.90
13346;DHT22;6742;48.036;15.780;2024-01-06T07:40:39;4.30;99.90
13346;DHT22;6742;48.036;15.780;2024-01-06T07:43:07;4.30;99.90
13346;DHT22;6742;48.036;15.780;2024-01-06T07:45:34;4.40;99.90
13346;DHT22;6742;48.036;15.780;2024-01-06T07:48:01;4.40;99.90
13346;DHT22;6742;48.036;15.780;2024-01-06T07:50:29;4.40;99.90
13346;DHT22;6742;48.036;15.780;2024-01-06T07:52:56;4.50;99.90
13346;DHT22;6742;48.036;15.780;2024-01-06T07:55:23;4.50;99.90
13346;DHT22;6742;48.036;15.780;2024-01-06T07:57:54;4.50;99.90
13346;DHT22;6742;48.036;15.780;2024-01-06T08:00:21;4.50;99.90
13346;DHT22;6742;48.036;15.780;2024-01-06T08:02:48;4.50;99.90
13346;DHT22;6742;48.036;15.780;2024-01-06T08:05:15;4.50;99.90
13346;DHT22;6742;48.036;15.780;2024-01-06T08:07:43;4.40;99.90
13346;DHT22;6742;48.036;15.780;2024-01-06T08:10:10;4.50;99.90
13346;DHT22;6742;48.036;15.780;2024-01-06T08:12:37;4.40;99.90
13346;DHT22;6742;48.036;15.780;2024-01-06T08:15:05;4.40;99.90
13346;DHT22;6742;48.036;15.780;2024-01-06T08:17:34;4.30;99.90
13346;DHT22;6742;48.036;15.780;2024-01-06T08:20:01;4.30;99.90
13346;DHT22;6742;48.036;15.780;2024-01-06T08:22:29;4.40;99.90
13346;DHT22;6742;48.036;15.780;2024-01-06T08:24:57;4.40;99.90
13346;DHT22;6742;48.036;15.780;2024-01-06T08:27:24;4.30;99.90
13346;DHT22;6742;48.036;15.780;2024-01-06T08:29:51;4.20;99.90
13346;DHT22;6742;48.036;15.780;2024-01-06T08:32:18;4.20;99.90
13346;DHT22;6742;48.036;15.780;2024-01-06T08:34:45;4.20;99.90
13346;DHT22;6742;48.036;15.780;2024-01-06T08:37:12;4.20;99.90
13346;DHT22;6742;48.036;15.780;2024-01-06T08:39:40;4.20;99.90
13346;DHT22;6742;48.036;15.780;2024-01-06T08:42:08;4.20;99.90
13346;DHT22;6742;48.036;15.780;2024-01-06T08:44:35;4.20;99.90
13346;DHT22;6742;48.036;15.780;2024-01-06T08:47:02;4.20;99.90
13346;DHT22;6742;48.036;15.780;2024-01-06T08:49:29;4.10;99.90
13346;DHT22;6742;48.036;15.780;2024-01-06T08:51:57;4.10;99.90
13346;DHT22;6742;48.036;15.780;2024-01-06T08:54:24;4.10;99.90
13346;DHT22;6742;48.036;15.780;2024-01-06T08:56:51;4.00;99.90
13346;DHT22;6742;48.036;15.780;2024-01-06T08:59:19;4.00;99.90
13346;DHT22;6742;48.036;15.780;2024-01-06T09:01:46;3.90;99.90
13346;DHT22;6742;48.036;15.780;2024-01-06T09:04:13;3.90;99.90
13346;DHT22;6742;48.036;15.780;2024-01-06T09:06:40;3.90;99.90
13346;DHT22;6742;48.036;15.780;2024-01-06T09:09:08;3.90;99.90
13346;DHT22;6742;48.036;15.780;2024-01-06T09:11:35;3.90;99.90
13346;DHT22;6742;48.036;15.780;2024-01-06T09:14:02;3.90;99.90
13346;DHT22;6742;48.036;15.780;2024-01-06T09:16:30;3.70;99.90
13346;DHT22;6742;48.036;15.780;2024-01-06T09:18:57;3.70;99.90
13346;DHT22;6742;48.036;15.780;2024-01-06T09:21:24;3.70;99.90
13346;DHT22;6742;48.036;15.780;2024-01-06T09:23:51;3.70;99.90
13346;DHT22;6742;48.036;15.780;2024-01-06T09:26:18;3.70;99.90
13346;DHT22;6742;48.036;15.780;2024-01-06T09:28:45;3.70;99.90
13346;DHT22;6742;48.036;15.780;2024-01-06T09:31:13;3.60;99.90
13346;DHT22;6742;48.036;15.780;2024-01-06T09:33:41;3.60;99.90
13346;DHT22;6742;48.036;15.780;2024-01-06T09:36:08;3.60;99.90
13346;DHT22;6742;48.036;15.780;2024-01-06T09:38:37;3.60;99.90
13346;DHT22;6742;48.036;15.780;2024-01-06T09:41:05;3.70;99.90
13346;DHT22;6742;48.036;15.780;2024-01-06T09:43:32;3.70;99.90
13346;DHT22;6742;48.036;15.780;2024-01-06T09:46:15;3.80;99.90
13346;DHT22;6742;48.036;15.780;2024-01-06T09:48:45;3.80;99.90
13346;DHT22;6742;48.036;15.780;2024-01-06T09:51:14;3.70;99.90
13346;DHT22;6742;48.036;15.780;2024-01-06T09:53:48;3.70;99.90
13346;DHT22;6742;48.036;15.780;2024-01-06T09:56:15;3.70;99.90
13346;DHT22;6742;48.036;15.780;2024-01-06T09:58:44;3.60;99.90
13346;DHT22;6742;48.036;15.780;2024-01-06T10:01:11;3.70;99.90
13346;DHT22;6742;48.036;15.780;2024-01-06T10:03:40;3.70;99.90
13346;DHT22;6742;48.036;15.780;2024-01-06T10:06:08;3.70;99.90
13346;DHT22;6742;48.036;15.780;2024-01-06T10:08:35;3.80;99.90
13346;DHT22;6742;48.036;15.780;2024-01-06T10:11:02;3.80;99.90
13346;DHT22;6742;48.036;15.780;2024-01-06T10:13:29;3.80;99.90
13346;DHT22;6742;48.036;15.780;2024-01-06T10:15:56;3.90;99.90
13346;DHT22;6742;48.036;15.780;2024-01-06T10:18:25;3.90;99.90
13346;DHT22;6742;48.036;15.780;2024-01-06T10:20:55;3.90;99.90
13346;DHT22;6742;48.036;15.780;2024-01-06T10:23:24;3.90;99.90
13346;DHT22;6742;48.036;15.780;2024-01-06T10:25:52;3.90;99.90
13346;DHT22;6742;48.036;15.780;2024-01-06T10:28:20;3.90;99.90
13346;DHT22;6742;48.036;15.780;2024-01-06T10:30:48;3.80;99.90
13346;DHT22;6742;48.036;15.780;2024-01-06T10:33:16;3.80;99.90
13346;DHT22;6742;48.036;15.780;2024-01-06T10:35:43;3.80;99.90
13346;DHT22;6742;48.036;15.780;2024-01-06T10:38:11;3.80;99.90
13346;DHT22;6742;48.036;15.780;2024-01-06T10:40:40;3.80;99.90
13346;DHT22;6742;48.036;15.780;2024-01-06T10:43:07;3.80;99.90
13346;DHT22;6742;48.036;15.780;2024-01-06T10:45:35;3.80;99.90
13346;DHT22;6742;48.036;15.780;2024-01-06T10:48:05;3.70;99.90
13346;DHT22;6742;48.036;15.780;2024-01-06T10:50:32;3.80;99.90
13346;DHT22;6742;48.036;15.780;2024-01-06T10:53:00;3.80;99.90
13346;DHT22;6742;48.036;15.780;2024-01-06T10:55:29;3.80;99.90
13346;DHT22;6742;48.036;15.780;2024-01-06T10:57:59;3.80;99.90
13346;DHT22;6742;48.036;15.780;2024-01-06T11:00:27;3.70;99.90
13346;DHT22;6742;48.036;15.780;2024-01-06T11:02:55;3.70;99.90
13346;DHT22;6742;48.036;15.780;2024-01-06T11:05:23;3.70;99.90
13346;DHT22;6742;48.036;15.780;2024-01-06T11:07:51;3.70;99.90
13346;DHT22;6742;48.036;15.780;2024-01-06T11:10:25;3.80;99.90
13346;DHT22;6742;48.036;15.780;2024-01-06T11:13:14;3.80;99.90
13346;DHT22;6742;48.036;15.780;2024-01-06T11:15:47;3.70;99.90
13346;DHT22;6742;48.036;15.780;2024-01-06T11:18:34;3.70;99.90
13346;DHT22;6742;48.036;15.780;2024-01-06T11:21:16;3.80;99.90
13346;DHT22;6742;48.036;15.780;2024-01-06T11:23:44;3.80;99.90
13346;DHT22;6742;48.036;15.780;2024-01-06T11:26:13;3.70;99.90
13346;DHT22;6742;48.036;15.780;2024-01-06T11:28:46;3.80;99.90
13346;DHT22;6742;48.036;15.780;2024-01-06T11:31:13;3.80;99.90
13346;DHT22;6742;48.036;15.780;2024-01-06T11:33:42;3.90;99.90
13346;DHT22;6742;48.036;15.780;2024-01-06T11:36:09;3.90;99.90
13346;DHT22;6742;48.036;15.780;2024-01-06T11:38:38;3.80;99.90
13346;DHT22;6742;48.036;15.780;2024-01-06T11:41:06;3.80;99.90
13346;DHT22;6742;48.036;15.780;2024-01-06T11:43:34;3.80;99.90
13346;DHT22;6742;48.036;15.780;2024-01-06T11:46:05;3.90;99.90
13346;DHT22;6742;48.036;15.780;2024-01-06T11:48:34;3.90;99.90
13346;DHT22;6742;48.036;15.780;2024-01-06T11:51:03;3.80;99.90
13346;DHT22;6742;48.036;15.780;2024-01-06T11:53:31;3.90;99.90
13346;DHT22;6742;48.036;15.780;2024-01-06T11:55:59;3.90;99.90
13346;DHT22;6742;48.036;15.780;2024-01-06T11:58:27;3.90;99.90
13346;DHT22;6742;48.036;15.780;2024-01-06T12:00:55;4.00;99.90
13346;DHT22;6742;48.036;15.780;2024-01-06T12:03:23;3.90;99.90
13346;DHT22;6742;48.036;15.780;2024-01-06T12:05:59;3.80;99.90
13346;DHT22;6742;48.036;15.780;2024-01-06T12:08:27;3.80;99.90
13346;DHT22;6742;48.036;15.780;2024-01-06T12:11:02;3.80;99.90
13346;DHT22;6742;48.036;15.780;2024-01-06T12:13:29;3.70;99.90
13346;DHT22;6742;48.036;15.780;2024-01-06T12:15:56;3.70;99.90
13346;DHT22;6742;48.036;15.780;2024-01-06T12:18:25;3.60;99.90
13346;DHT22;6742;48.036;15.780;2024-01-06T12:20:52;3.60;99.90
13346;DHT22;6742;48.036;15.780;2024-01-06T12:23:25;3.50;99.90
13346;DHT22;6742;48.036;15.780;2024-01-06T12:25:53;3.60;99.90
13346;DHT22;6742;48.036;15.780;2024-01-06T12:28:20;3.70;99.90
13346;DHT22;6742;48.036;15.780;2024-01-06T12:30:47;3.70;99.90
13346;DHT22;6742;48.036;15.780;2024-01-06T12:33:14;3.70;99.90
13346;DHT22;6742;48.036;15.780;2024-01-06T12:35:43;3.80;99.90
13346;DHT22;6742;48.036;15.780;2024-01-06T12:38:10;3.80;99.90
13346;DHT22;6742;48.036;15.780;2024-01-06T12:40:37;3.90;99.90
13346;DHT22;6742;48.036;15.780;2024-01-06T12:43:05;3.90;99.90
13346;DHT22;6742;48.036;15.780;2024-01-06T12:45:32;3.90;99.90
13346;DHT22;6742;48.036;15.780;2024-01-06T12:47:59;3.90;99.90
13346;DHT22;6742;48.036;15.780;2024-01-06T12:50:25;3.90;99.90
13346;DHT22;6742;48.036;15.780;2024-01-06T12:52:54;3.90;99.90
13346;DHT22;6742;48.036;15.780;2024-01-06T12:55:21;3.90;99.90
13346;DHT22;6742;48.036;15.780;2024-01-06T12:57:48;3.90;99.90
13346;DHT22;6742;48.036;15.780;2024-01-06T13:00:15;3.80;99.90
13346;DHT22;6742;48.036;15.780;2024-01-06T13:02:42;3.80;99.90
13346;DHT22;6742;48.036;15.780;2024-01-06T13:05:09;3.90;99.90
13346;DHT22;6742;48.036;15.780;2024-01-06T13:07:38;3.90;99.90
13346;DHT22;6742;48.036;15.780;2024-01-06T13:10:08;3.90;99.90
13346;DHT22;6742;48.036;15.780;2024-01-06T13:12:35;3.90;99.90
13346;DHT22;6742;48.036;15.780;2024-01-06T13:15:03;3.80;99.90
13346;DHT22;6742;48.036;15.780;2024-01-06T13:17:31;3.80;99.90
13346;DHT22;6742;48.036;15.780;2024-01-06T13:19:58;3.80;99.90
13346;DHT22;6742;48.036;15.780;2024-01-06T13:22:25;3.70;99.90
13346;DHT22;6742;48.036;15.780;2024-01-06T13:24:52;3.70;99.90
13346;DHT22;6742;48.036;15.780;2024-01-06T13:27:20;3.80;99.90
13346;DHT22;6742;48.036;15.780;2024-01-06T13:29:47;3.80;99.90
13346;DHT22;6742;48.036;15.780;2024-01-06T13:32:14;3.80;99.90
13346;DHT22;6742;48.036;15.780;2024-01-06T13:34:41;3.90;99.90
13346;DHT22;6742;48.036;15.780;2024-01-06T13:37:08;3.80;99.90
13346;DHT22;6742;48.036;15.780;2024-01-06T13:39:36;3.70;99.90
13346;DHT22;6742;48.036;15.780;2024-01-06T13:42:04;3.70;99.90
13346;DHT22;6742;48.036;15.780;2024-01-06T13:44:33;3.80;99.90
13346;DHT22;6742;48.036;15.780;2024-01-06T13:47:00;3.80;99.90
13346;DHT22;6742;48.036;15.780;2024-01-06T13:49:27;3.80;99.90
13346;DHT22;6742;48.036;15.780;2024-01-06T13:51:54;3.80;99.90
13346;DHT22;6742;48.036;15.780;2024-01-06T13:54:21;3.90;99.90
13346;DHT22;6742;48.036;15.780;2024-01-06T13:56:48;3.90;99.90
13346;DHT22;6742;48.036;15.780;2024-01-06T13:59:15;3.90;99.90
13346;DHT22;6742;48.036;15.780;2024-01-06T14:01:43;3.90;99.90
13346;DHT22;6742;48.036;15.780;2024-01-06T14:04:11;3.90;99.90
13346;DHT22;6742;48.036;15.780;2024-01-06T14:06:38;3.80;99.90
13346;DHT22;6742;48.036;15.780;2024-01-06T14:09:05;3.80;99.90
13346;DHT22;6742;48.036;15.780;2024-01-06T14:11:32;3.80;99.90
13346;DHT22;6742;48.036;15.780;2024-01-06T14:14:00;3.90;99.90
13346;DHT22;6742;48.036;15.780;2024-01-06T14:16:26;3.90;99.90
13346;DHT22;6742;48.036;15.780;2024-01-06T14:18:55;3.80;99.90
13346;DHT22;6742;48.036;15.780;2024-01-06T14:21:22;3.90;99.90
13346;DHT22;6742;48.036;15.780;2024-01-06T14:23:49;3.90;99.90
13346;DHT22;6742;48.036;15.780;2024-01-06T14:26:16;3.80;99.90
13346;DHT22;6742;48.036;15.780;2024-01-06T14:28:45;3.90;99.90
13346;DHT22;6742;48.036;15.780;2024-01-06T14:31:12;3.80;99.90
13346;DHT22;6742;48.036;15.780;2024-01-06T14:33:39;3.80;99.90
13346;DHT22;6742;48.036;15.780;2024-01-06T14:36:08;3.70;99.90
13346;DHT22;6742;48.036;15.780;2024-01-06T14:38:35;3.70;99.90
13346;DHT22;6742;48.036;15.780;2024-01-06T14:41:02;3.60;99.90
13346;DHT22;6742;48.036;15.780;2024-01-06T14:43:29;3.60;99.90
13346;DHT22;6742;48.036;15.780;2024-01-06T14:45:56;3.60;99.90
13346;DHT22;6742;48.036;15.780;2024-01-06T14:48:23;3.60;99.90
13346;DHT22;6742;48.036;15.780;2024-01-06T14:50:50;3.70;99.90
13346;DHT22;6742;48.036;15.780;2024-01-06T14:53:18;3.70;99.90
13346;DHT22;6742;48.036;15.780;2024-01-06T14:55:45;3.70;99.90
13346;DHT22;6742;48.036;15.780;2024-01-06T14:58:12;3.70;99.90
13346;DHT22;6742;48.036;15.780;2024-01-06T15:00:39;3.70;99.90
13346;DHT22;6742;48.036;15.780;2024-01-06T15:03:06;3.80;99.90
13346;DHT22;6742;48.036;15.780;2024-01-06T15:05:33;3.80;99.90
13346;DHT22;6742;48.036;15.780;2024-01-06T15:08:00;3.70;99.90
13346;DHT22;6742;48.036;15.780;2024-01-06T15:10:28;3.70;99.90
13346;DHT22;6742;48.036;15.780;2024-01-06T15:12:55;3.70;99.90
13346;DHT22;6742;48.036;15.780;2024-01-06T15:15:22;3.70;99.90
13346;DHT22;6742;48.036;15.780;2024-01-06T15:17:49;3.70;99.90
13346;DHT22;6742;48.036;15.780;2024-01-06T15:20:16;3.70;99.90
13346;DHT22;6742;48.036;15.780;2024-01-06T15:22:43;3.70;99.90
13346;DHT22;6742;48.036;15.780;2024-01-06T15:25:10;3.60;99.90
13346;DHT22;6742;48.036;15.780;2024-01-06T15:27:38;3.70;99.90
13346;DHT22;6742;48.036;15.780;2024-01-06T15:30:06;3.70;99.90
13346;DHT22;6742;48.036;15.780;2024-01-06T15:32:34;3.70;99.90
13346;DHT22;6742;48.036;15.780;2024-01-06T15:35:01;3.70;99.90
13346;DHT22;6742;48.036;15.780;2024-01-06T15:37:29;3.70;99.90
13346;DHT22;6742;48.036;15.780;2024-01-06T15:39:56;3.70;99.90
13346;DHT22;6742;48.036;15.780;2024-01-06T15:42:23;3.60;99.90
13346;DHT22;6742;48.036;15.780;2024-01-06T15:44:51;3.60;99.90
13346;DHT22;6742;48.036;15.780;2024-01-06T15:47:18;3.60;99.90